sensor_id;sensor_type;location;lat;lon;timestamp;P1;durP1;ratioP1;P2;durP2;ratioP2
43160;SDS011;40968;52.342;5.528;2023-03-24T00:00:57;8.10;;;2.97;;
43160;SDS011;40968;52.342;5.528;2023-03-24T00:03:26;9.88;;;3.17;;
43160;SDS011;40968;52.342;5.528;2023-03-24T00:05:54;6.93;;;3.20;;
43160;SDS011;40968;52.342;5.528;2023-03-24T00:08:22;8.88;;;3.28;;
43160;SDS011;40968;52.342;5.528;2023-03-24T00:10:49;9.95;;;2.80;;
43160;SDS011;40968;52.342;5.528;2023-03-24T00:13:17;10.20;;;3.60;;
43160;SDS011;40968;52.342;5.528;2023-03-24T00:15:43;10.80;;;3.58;;
43160;SDS011;40968;52.342;5.528;2023-03-24T00:18:12;9.23;;;3.58;;
43160;SDS011;40968;52.342;5.528;2023-03-24T00:20:40;12.10;;;3.72;;
43160;SDS011;40968;52.342;5.528;2023-03-24T00:23:08;12.65;;;3.72;;
43160;SDS011;40968;52.342;5.528;2023-03-24T00:25:34;11.15;;;3.47;;
43160;SDS011;40968;52.342;5.528;2023-03-24T00:28:01;9.93;;;3.75;;
43160;SDS011;40968;52.342;5.528;2023-03-24T00:30:29;11.40;;;3.60;;
43160;SDS011;40968;52.342;5.528;2023-03-24T00:32:57;21.73;;;4.28;;
43160;SDS011;40968;52.342;5.528;2023-03-24T00:35:26;10.55;;;3.47;;
43160;SDS011;40968;52.342;5.528;2023-03-24T00:37:54;8.95;;;3.20;;
43160;SDS011;40968;52.342;5.528;2023-03-24T00:40:21;17.55;;;3.33;;
43160;SDS011;40968;52.342;5.528;2023-03-24T00:42:49;10.02;;;3.40;;
43160;SDS011;40968;52.342;5.528;2023-03-24T00:45:16;10.68;;;3.50;;
43160;SDS011;40968;52.342;5.528;2023-03-24T00:47:47;8.30;;;3.30;;
43160;SDS011;40968;52.342;5.528;2023-03-24T00:50:18;7.03;;;3.40;;
43160;SDS011;40968;52.342;5.528;2023-03-24T00:52:50;9.82;;;3.63;;
43160;SDS011;40968;52.342;5.528;2023-03-24T00:55:19;12.75;;;3.53;;
43160;SDS011;40968;52.342;5.528;2023-03-24T00:57:46;8.93;;;3.33;;
43160;SDS011;40968;52.342;5.528;2023-03-24T01:00:15;8.02;;;3.05;;
43160;SDS011;40968;52.342;5.528;2023-03-24T01:02:45;9.10;;;3.40;;
43160;SDS011;40968;52.342;5.528;2023-03-24T01:05:13;7.60;;;3.05;;
43160;SDS011;40968;52.342;5.528;2023-03-24T01:07:41;8.05;;;3.50;;
43160;SDS011;40968;52.342;5.528;2023-03-24T01:10:10;7.10;;;3.33;;
43160;SDS011;40968;52.342;5.528;2023-03-24T01:12:39;15.13;;;3.80;;
43160;SDS011;40968;52.342;5.528;2023-03-24T01:15:07;9.70;;;3.50;;
43160;SDS011;40968;52.342;5.528;2023-03-24T01:17:37;9.00;;;3.15;;
43160;SDS011;40968;52.342;5.528;2023-03-24T01:20:04;11.73;;;3.42;;
43160;SDS011;40968;52.342;5.528;2023-03-24T01:22:35;8.45;;;2.88;;
43160;SDS011;40968;52.342;5.528;2023-03-24T01:25:04;7.38;;;3.15;;
43160;SDS011;40968;52.342;5.528;2023-03-24T01:27:31;11.35;;;3.22;;
43160;SDS011;40968;52.342;5.528;2023-03-24T01:30:00;9.02;;;3.20;;
43160;SDS011;40968;52.342;5.528;2023-03-24T01:32:28;13.07;;;3.17;;
43160;SDS011;40968;52.342;5.528;2023-03-24T01:34:55;9.30;;;3.88;;
43160;SDS011;40968;52.342;5.528;2023-03-24T01:37:21;8.13;;;3.58;;
43160;SDS011;40968;52.342;5.528;2023-03-24T01:39:48;11.48;;;3.20;;
43160;SDS011;40968;52.342;5.528;2023-03-24T01:42:15;7.93;;;3.35;;
43160;SDS011;40968;52.342;5.528;2023-03-24T01:44:44;6.97;;;3.42;;
43160;SDS011;40968;52.342;5.528;2023-03-24T01:47:13;8.77;;;3.33;;
43160;SDS011;40968;52.342;5.528;2023-03-24T01:49:42;10.48;;;3.75;;
43160;SDS011;40968;52.342;5.528;2023-03-24T01:52:13;8.85;;;3.28;;
43160;SDS011;40968;52.342;5.528;2023-03-24T01:54:43;10.48;;;3.25;;
43160;SDS011;40968;52.342;5.528;2023-03-24T01:57:14;11.05;;;3.60;;
43160;SDS011;40968;52.342;5.528;2023-03-24T01:59:47;8.48;;;3.35;;
43160;SDS011;40968;52.342;5.528;2023-03-24T02:02:18;19.77;;;3.90;;
43160;SDS011;40968;52.342;5.528;2023-03-24T02:04:46;8.00;;;3.55;;
43160;SDS011;40968;52.342;5.528;2023-03-24T02:07:21;12.40;;;3.58;;
43160;SDS011;40968;52.342;5.528;2023-03-24T02:09:54;12.27;;;4.53;;
43160;SDS011;40968;52.342;5.528;2023-03-24T02:12:21;10.45;;;3.30;;
43160;SDS011;40968;52.342;5.528;2023-03-24T02:14:48;9.57;;;3.65;;
43160;SDS011;40968;52.342;5.528;2023-03-24T02:17:28;10.43;;;3.50;;
43160;SDS011;40968;52.342;5.528;2023-03-24T02:23:14;13.30;;;4.10;;
43160;SDS011;40968;52.342;5.528;2023-03-24T02:26:20;10.98;;;3.88;;
43160;SDS011;40968;52.342;5.528;2023-03-24T02:29:03;11.48;;;4.03;;
43160;SDS011;40968;52.342;5.528;2023-03-24T02:31:58;6.85;;;3.35;;
43160;SDS011;40968;52.342;5.528;2023-03-24T02:38:05;9.98;;;4.07;;
43160;SDS011;40968;52.342;5.528;2023-03-24T02:40:48;9.50;;;4.40;;
43160;SDS011;40968;52.342;5.528;2023-03-24T02:43:28;11.70;;;4.47;;
43160;SDS011;40968;52.342;5.528;2023-03-24T02:46:04;7.53;;;3.10;;
43160;SDS011;40968;52.342;5.528;2023-03-24T02:48:40;4.70;;;2.33;;
43160;SDS011;40968;52.342;5.528;2023-03-24T02:51:13;7.07;;;2.42;;
43160;SDS011;40968;52.342;5.528;2023-03-24T02:53:48;3.88;;;2.05;;
43160;SDS011;40968;52.342;5.528;2023-03-24T02:56:24;10.95;;;2.97;;
43160;SDS011;40968;52.342;5.528;2023-03-24T02:58:58;6.80;;;2.00;;
43160;SDS011;40968;52.342;5.528;2023-03-24T03:01:28;8.00;;;1.58;;
43160;SDS011;40968;52.342;5.528;2023-03-24T03:04:00;8.23;;;1.40;;
43160;SDS011;40968;52.342;5.528;2023-03-24T03:06:33;5.13;;;1.27;;
43160;SDS011;40968;52.342;5.528;2023-03-24T03:09:04;5.18;;;1.42;;
43160;SDS011;40968;52.342;5.528;2023-03-24T03:11:37;2.95;;;0.95;;
43160;SDS011;40968;52.342;5.528;2023-03-24T03:14:05;8.90;;;1.20;;
43160;SDS011;40968;52.342;5.528;2023-03-24T03:16:37;2.75;;;1.17;;
43160;SDS011;40968;52.342;5.528;2023-03-24T03:19:10;5.85;;;1.50;;
43160;SDS011;40968;52.342;5.528;2023-03-24T03:21:42;5.60;;;1.50;;
43160;SDS011;40968;52.342;5.528;2023-03-24T03:24:11;4.25;;;1.40;;
43160;SDS011;40968;52.342;5.528;2023-03-24T03:26:43;4.43;;;1.35;;
43160;SDS011;40968;52.342;5.528;2023-03-24T03:29:13;9.75;;;1.48;;
43160;SDS011;40968;52.342;5.528;2023-03-24T03:31:43;8.38;;;2.20;;
43160;SDS011;40968;52.342;5.528;2023-03-24T03:34:16;7.00;;;1.58;;
43160;SDS011;40968;52.342;5.528;2023-03-24T03:36:53;8.63;;;1.63;;
43160;SDS011;40968;52.342;5.528;2023-03-24T03:39:24;10.57;;;1.65;;
43160;SDS011;40968;52.342;5.528;2023-03-24T03:41:55;8.38;;;1.98;;
43160;SDS011;40968;52.342;5.528;2023-03-24T03:44:22;6.18;;;1.63;;
43160;SDS011;40968;52.342;5.528;2023-03-24T03:46:49;8.85;;;1.80;;
43160;SDS011;40968;52.342;5.528;2023-03-24T03:49:16;8.30;;;2.28;;
43160;SDS011;40968;52.342;5.528;2023-03-24T03:51:43;6.88;;;1.98;;
43160;SDS011;40968;52.342;5.528;2023-03-24T03:54:10;9.15;;;1.58;;
43160;SDS011;40968;52.342;5.528;2023-03-24T03:56:39;8.77;;;1.92;;
43160;SDS011;40968;52.342;5.528;2023-03-24T03:59:09;5.93;;;1.73;;
43160;SDS011;40968;52.342;5.528;2023-03-24T04:01:47;5.18;;;1.25;;
43160;SDS011;40968;52.342;5.528;2023-03-24T04:04:19;6.47;;;2.03;;
43160;SDS011;40968;52.342;5.528;2023-03-24T04:07:02;5.03;;;1.60;;
43160;SDS011;40968;52.342;5.528;2023-03-24T04:09:40;8.07;;;2.03;;
43160;SDS011;40968;52.342;5.528;2023-03-24T04:12:26;7.63;;;1.67;;
43160;SDS011;40968;52.342;5.528;2023-03-24T04:15:13;13.18;;;1.95;;
43160;SDS011;40968;52.342;5.528;2023-03-24T04:17:59;15.00;;;2.28;;
43160;SDS011;40968;52.342;5.528;2023-03-24T04:20:37;8.88;;;2.30;;
43160;SDS011;40968;52.342;5.528;2023-03-24T04:23:13;14.75;;;3.28;;
43160;SDS011;40968;52.342;5.528;2023-03-24T04:25:50;9.27;;;2.75;;
43160;SDS011;40968;52.342;5.528;2023-03-24T04:28:23;15.18;;;2.22;;
43160;SDS011;40968;52.342;5.528;2023-03-24T04:31:00;8.43;;;2.22;;
43160;SDS011;40968;52.342;5.528;2023-03-24T04:33:33;8.40;;;2.67;;
43160;SDS011;40968;52.342;5.528;2023-03-24T04:36:08;12.70;;;3.67;;
43160;SDS011;40968;52.342;5.528;2023-03-24T04:38:42;11.32;;;2.60;;
43160;SDS011;40968;52.342;5.528;2023-03-24T04:41:13;9.13;;;2.10;;
43160;SDS011;40968;52.342;5.528;2023-03-24T04:43:41;15.32;;;2.80;;
43160;SDS011;40968;52.342;5.528;2023-03-24T04:46:13;13.05;;;2.55;;
43160;SDS011;40968;52.342;5.528;2023-03-24T04:48:42;9.98;;;2.72;;
43160;SDS011;40968;52.342;5.528;2023-03-24T04:51:09;17.77;;;2.97;;
43160;SDS011;40968;52.342;5.528;2023-03-24T04:53:36;10.25;;;2.60;;
43160;SDS011;40968;52.342;5.528;2023-03-24T04:56:05;11.98;;;3.00;;
43160;SDS011;40968;52.342;5.528;2023-03-24T04:58:43;12.00;;;3.30;;
43160;SDS011;40968;52.342;5.528;2023-03-24T05:01:10;15.80;;;2.88;;
43160;SDS011;40968;52.342;5.528;2023-03-24T05:03:39;12.75;;;3.08;;
43160;SDS011;40968;52.342;5.528;2023-03-24T05:06:06;18.23;;;3.25;;
43160;SDS011;40968;52.342;5.528;2023-03-24T05:08:35;17.40;;;3.08;;
43160;SDS011;40968;52.342;5.528;2023-03-24T05:11:02;12.80;;;3.78;;
43160;SDS011;40968;52.342;5.528;2023-03-24T05:13:30;10.80;;;2.90;;
43160;SDS011;40968;52.342;5.528;2023-03-24T05:15:56;10.70;;;2.90;;
43160;SDS011;40968;52.342;5.528;2023-03-24T05:18:23;21.00;;;3.00;;
43160;SDS011;40968;52.342;5.528;2023-03-24T05:20:51;17.38;;;3.10;;
43160;SDS011;40968;52.342;5.528;2023-03-24T05:23:18;17.40;;;3.95;;
43160;SDS011;40968;52.342;5.528;2023-03-24T05:25:45;21.52;;;3.03;;
43160;SDS011;40968;52.342;5.528;2023-03-24T05:28:12;13.27;;;3.20;;
43160;SDS011;40968;52.342;5.528;2023-03-24T05:30:39;17.98;;;3.95;;
43160;SDS011;40968;52.342;5.528;2023-03-24T05:33:06;15.73;;;3.88;;
43160;SDS011;40968;52.342;5.528;2023-03-24T05:35:32;13.23;;;3.30;;
43160;SDS011;40968;52.342;5.528;2023-03-24T05:38:01;26.02;;;3.50;;
43160;SDS011;40968;52.342;5.528;2023-03-24T05:40:27;21.75;;;3.50;;
43160;SDS011;40968;52.342;5.528;2023-03-24T05:42:54;17.98;;;3.55;;
43160;SDS011;40968;52.342;5.528;2023-03-24T05:45:21;23.50;;;5.40;;
43160;SDS011;40968;52.342;5.528;2023-03-24T05:47:49;21.10;;;4.10;;
43160;SDS011;40968;52.342;5.528;2023-03-24T05:50:15;23.63;;;4.13;;
43160;SDS011;40968;52.342;5.528;2023-03-24T05:52:42;19.20;;;4.97;;
43160;SDS011;40968;52.342;5.528;2023-03-24T05:55:11;16.30;;;4.75;;
43160;SDS011;40968;52.342;5.528;2023-03-24T05:57:40;21.75;;;4.85;;
43160;SDS011;40968;52.342;5.528;2023-03-24T06:00:08;33.60;;;5.15;;
43160;SDS011;40968;52.342;5.528;2023-03-24T06:02:41;30.85;;;5.10;;
43160;SDS011;40968;52.342;5.528;2023-03-24T06:05:08;20.17;;;5.10;;
43160;SDS011;40968;52.342;5.528;2023-03-24T06:07:35;27.10;;;4.50;;
43160;SDS011;40968;52.342;5.528;2023-03-24T06:10:02;26.58;;;5.07;;
43160;SDS011;40968;52.342;5.528;2023-03-24T06:12:33;27.05;;;4.82;;
43160;SDS011;40968;52.342;5.528;2023-03-24T06:14:59;21.70;;;4.97;;
43160;SDS011;40968;52.342;5.528;2023-03-24T06:17:27;31.42;;;5.90;;
43160;SDS011;40968;52.342;5.528;2023-03-24T06:19:54;38.22;;;7.35;;
43160;SDS011;40968;52.342;5.528;2023-03-24T06:22:26;36.30;;;5.65;;
43160;SDS011;40968;52.342;5.528;2023-03-24T06:24:54;29.52;;;5.20;;
43160;SDS011;40968;52.342;5.528;2023-03-24T06:27:23;17.73;;;5.07;;
43160;SDS011;40968;52.342;5.528;2023-03-24T06:29:55;26.35;;;5.25;;
43160;SDS011;40968;52.342;5.528;2023-03-24T06:32:22;30.33;;;5.25;;
43160;SDS011;40968;52.342;5.528;2023-03-24T06:34:49;21.02;;;4.53;;
43160;SDS011;40968;52.342;5.528;2023-03-24T06:37:16;28.38;;;5.15;;
43160;SDS011;40968;52.342;5.528;2023-03-24T06:39:43;23.00;;;5.80;;
43160;SDS011;40968;52.342;5.528;2023-03-24T06:42:10;30.17;;;4.90;;
43160;SDS011;40968;52.342;5.528;2023-03-24T06:44:37;21.40;;;5.32;;
43160;SDS011;40968;52.342;5.528;2023-03-24T06:47:05;29.13;;;5.63;;
43160;SDS011;40968;52.342;5.528;2023-03-24T06:49:32;30.67;;;5.60;;
43160;SDS011;40968;52.342;5.528;2023-03-24T06:52:01;25.50;;;5.88;;
43160;SDS011;40968;52.342;5.528;2023-03-24T06:54:27;26.92;;;4.70;;
43160;SDS011;40968;52.342;5.528;2023-03-24T06:56:54;22.52;;;4.43;;
43160;SDS011;40968;52.342;5.528;2023-03-24T06:59:22;35.00;;;4.90;;
43160;SDS011;40968;52.342;5.528;2023-03-24T07:01:49;21.55;;;5.72;;
43160;SDS011;40968;52.342;5.528;2023-03-24T07:04:17;20.35;;;4.85;;
43160;SDS011;40968;52.342;5.528;2023-03-24T07:06:44;28.65;;;5.18;;
43160;SDS011;40968;52.342;5.528;2023-03-24T07:09:11;17.15;;;4.50;;
43160;SDS011;40968;52.342;5.528;2023-03-24T07:11:38;22.33;;;5.47;;
43160;SDS011;40968;52.342;5.528;2023-03-24T07:14:05;29.70;;;5.47;;
43160;SDS011;40968;52.342;5.528;2023-03-24T07:16:32;19.83;;;5.15;;
43160;SDS011;40968;52.342;5.528;2023-03-24T07:18:59;32.50;;;6.05;;
43160;SDS011;40968;52.342;5.528;2023-03-24T07:21:28;35.05;;;5.80;;
43160;SDS011;40968;52.342;5.528;2023-03-24T07:23:54;31.13;;;4.65;;
43160;SDS011;40968;52.342;5.528;2023-03-24T07:26:21;25.85;;;4.63;;
43160;SDS011;40968;52.342;5.528;2023-03-24T07:28:48;20.52;;;4.40;;
43160;SDS011;40968;52.342;5.528;2023-03-24T07:31:14;22.60;;;4.57;;
43160;SDS011;40968;52.342;5.528;2023-03-24T07:33:41;28.67;;;4.97;;
43160;SDS011;40968;52.342;5.528;2023-03-24T07:36:08;23.60;;;4.47;;
43160;SDS011;40968;52.342;5.528;2023-03-24T07:38:36;30.33;;;4.82;;
43160;SDS011;40968;52.342;5.528;2023-03-24T07:41:02;32.63;;;5.07;;
43160;SDS011;40968;52.342;5.528;2023-03-24T07:43:29;19.27;;;5.35;;
43160;SDS011;40968;52.342;5.528;2023-03-24T07:45:55;24.05;;;5.10;;
43160;SDS011;40968;52.342;5.528;2023-03-24T07:48:22;22.05;;;6.07;;
43160;SDS011;40968;52.342;5.528;2023-03-24T07:50:49;25.40;;;4.38;;
43160;SDS011;40968;52.342;5.528;2023-03-24T07:53:17;20.23;;;4.93;;
43160;SDS011;40968;52.342;5.528;2023-03-24T07:55:46;27.02;;;5.15;;
43160;SDS011;40968;52.342;5.528;2023-03-24T07:58:13;24.25;;;5.32;;
43160;SDS011;40968;52.342;5.528;2023-03-24T08:00:39;29.42;;;4.90;;
43160;SDS011;40968;52.342;5.528;2023-03-24T08:03:07;32.67;;;4.45;;
43160;SDS011;40968;52.342;5.528;2023-03-24T08:05:38;29.42;;;5.32;;
43160;SDS011;40968;52.342;5.528;2023-03-24T08:08:05;29.35;;;5.25;;
43160;SDS011;40968;52.342;5.528;2023-03-24T08:10:32;19.20;;;4.13;;
43160;SDS011;40968;52.342;5.528;2023-03-24T08:13:01;21.70;;;4.32;;
43160;SDS011;40968;52.342;5.528;2023-03-24T08:15:28;16.40;;;4.10;;
43160;SDS011;40968;52.342;5.528;2023-03-24T08:17:55;20.10;;;4.45;;
43160;SDS011;40968;52.342;5.528;2023-03-24T08:20:22;35.95;;;4.80;;
43160;SDS011;40968;52.342;5.528;2023-03-24T08:22:51;25.30;;;4.78;;
43160;SDS011;40968;52.342;5.528;2023-03-24T08:25:18;30.98;;;5.38;;
43160;SDS011;40968;52.342;5.528;2023-03-24T08:27:46;24.70;;;4.65;;
43160;SDS011;40968;52.342;5.528;2023-03-24T08:30:15;18.50;;;4.93;;
43160;SDS011;40968;52.342;5.528;2023-03-24T08:32:44;24.15;;;5.18;;
43160;SDS011;40968;52.342;5.528;2023-03-24T08:35:13;17.10;;;4.40;;
43160;SDS011;40968;52.342;5.528;2023-03-24T08:37:41;31.25;;;6.45;;
43160;SDS011;40968;52.342;5.528;2023-03-24T08:40:09;23.25;;;5.45;;
43160;SDS011;40968;52.342;5.528;2023-03-24T08:42:38;24.25;;;4.35;;
43160;SDS011;40968;52.342;5.528;2023-03-24T08:45:05;29.25;;;5.03;;
43160;SDS011;40968;52.342;5.528;2023-03-24T08:47:35;20.60;;;5.38;;
43160;SDS011;40968;52.342;5.528;2023-03-24T08:50:01;21.40;;;4.53;;
43160;SDS011;40968;52.342;5.528;2023-03-24T08:52:28;19.50;;;4.10;;
43160;SDS011;40968;52.342;5.528;2023-03-24T08:54:55;15.02;;;3.53;;
43160;SDS011;40968;52.342;5.528;2023-03-24T08:57:22;13.68;;;3.95;;
43160;SDS011;40968;52.342;5.528;2023-03-24T08:59:49;19.88;;;4.60;;
43160;SDS011;40968;52.342;5.528;2023-03-24T09:02:16;16.92;;;4.15;;
43160;SDS011;40968;52.342;5.528;2023-03-24T09:04:44;20.48;;;5.03;;
43160;SDS011;40968;52.342;5.528;2023-03-24T09:07:11;17.25;;;4.75;;
43160;SDS011;40968;52.342;5.528;2023-03-24T09:09:37;25.92;;;4.15;;
43160;SDS011;40968;52.342;5.528;2023-03-24T09:12:04;18.55;;;4.07;;
43160;SDS011;40968;52.342;5.528;2023-03-24T09:14:31;22.45;;;5.35;;
43160;SDS011;40968;52.342;5.528;2023-03-24T09:16:58;23.77;;;5.07;;
43160;SDS011;40968;52.342;5.528;2023-03-24T09:19:25;25.02;;;4.35;;
43160;SDS011;40968;52.342;5.528;2023-03-24T09:21:53;17.48;;;4.20;;
43160;SDS011;40968;52.342;5.528;2023-03-24T09:24:20;23.10;;;3.97;;
43160;SDS011;40968;52.342;5.528;2023-03-24T09:26:46;19.45;;;4.65;;
43160;SDS011;40968;52.342;5.528;2023-03-24T09:29:13;18.83;;;4.38;;
43160;SDS011;40968;52.342;5.528;2023-03-24T09:31:40;17.05;;;4.90;;
43160;SDS011;40968;52.342;5.528;2023-03-24T09:34:06;15.05;;;4.32;;
43160;SDS011;40968;52.342;5.528;2023-03-24T09:36:33;32.72;;;5.32;;
43160;SDS011;40968;52.342;5.528;2023-03-24T09:39:01;28.02;;;4.88;;
43160;SDS011;40968;52.342;5.528;2023-03-24T09:41:28;19.73;;;4.28;;
43160;SDS011;40968;52.342;5.528;2023-03-24T09:43:57;27.10;;;4.15;;
43160;SDS011;40968;52.342;5.528;2023-03-24T09:46:27;14.68;;;4.35;;
43160;SDS011;40968;52.342;5.528;2023-03-24T09:48:56;18.23;;;3.90;;
43160;SDS011;40968;52.342;5.528;2023-03-24T09:51:23;22.92;;;3.42;;
43160;SDS011;40968;52.342;5.528;2023-03-24T09:53:53;18.33;;;4.10;;
43160;SDS011;40968;52.342;5.528;2023-03-24T09:56:28;17.98;;;3.78;;
43160;SDS011;40968;52.342;5.528;2023-03-24T09:58:59;17.20;;;3.70;;
43160;SDS011;40968;52.342;5.528;2023-03-24T10:01:30;14.00;;;3.70;;
43160;SDS011;40968;52.342;5.528;2023-03-24T10:03:58;14.20;;;3.80;;
43160;SDS011;40968;52.342;5.528;2023-03-24T10:06:26;16.77;;;3.35;;
43160;SDS011;40968;52.342;5.528;2023-03-24T10:09:03;14.55;;;3.50;;
43160;SDS011;40968;52.342;5.528;2023-03-24T10:11:45;14.95;;;3.45;;
43160;SDS011;40968;52.342;5.528;2023-03-24T10:14:21;17.40;;;3.17;;
43160;SDS011;40968;52.342;5.528;2023-03-24T10:16:58;32.80;;;5.45;;
43160;SDS011;40968;52.342;5.528;2023-03-24T10:19:35;19.55;;;3.97;;
43160;SDS011;40968;52.342;5.528;2023-03-24T10:22:09;17.83;;;4.10;;
43160;SDS011;40968;52.342;5.528;2023-03-24T10:24:40;17.23;;;3.50;;
43160;SDS011;40968;52.342;5.528;2023-03-24T10:27:16;25.08;;;4.57;;
43160;SDS011;40968;52.342;5.528;2023-03-24T10:29:51;14.85;;;4.03;;
43160;SDS011;40968;52.342;5.528;2023-03-24T10:32:20;13.63;;;3.40;;
43160;SDS011;40968;52.342;5.528;2023-03-24T10:34:50;18.92;;;3.92;;
43160;SDS011;40968;52.342;5.528;2023-03-24T10:37:21;16.83;;;3.45;;
43160;SDS011;40968;52.342;5.528;2023-03-24T10:42:22;11.32;;;3.35;;
43160;SDS011;40968;52.342;5.528;2023-03-24T10:44:51;19.30;;;3.10;;
43160;SDS011;40968;52.342;5.528;2023-03-24T10:47:18;15.05;;;3.28;;
43160;SDS011;40968;52.342;5.528;2023-03-24T10:49:52;15.98;;;3.25;;
43160;SDS011;40968;52.342;5.528;2023-03-24T10:52:20;15.10;;;3.58;;
43160;SDS011;40968;52.342;5.528;2023-03-24T10:54:55;21.25;;;3.30;;
43160;SDS011;40968;52.342;5.528;2023-03-24T10:57:24;17.52;;;3.28;;
43160;SDS011;40968;52.342;5.528;2023-03-24T10:59:53;10.90;;;3.08;;
43160;SDS011;40968;52.342;5.528;2023-03-24T11:02:22;13.88;;;4.20;;
43160;SDS011;40968;52.342;5.528;2023-03-24T11:04:52;16.67;;;3.63;;
43160;SDS011;40968;52.342;5.528;2023-03-24T11:07:22;24.23;;;3.53;;
43160;SDS011;40968;52.342;5.528;2023-03-24T11:09:55;22.65;;;3.70;;
43160;SDS011;40968;52.342;5.528;2023-03-24T11:12:25;19.50;;;3.50;;
43160;SDS011;40968;52.342;5.528;2023-03-24T11:15:00;24.35;;;3.72;;
43160;SDS011;40968;52.342;5.528;2023-03-24T11:17:36;14.80;;;3.40;;
43160;SDS011;40968;52.342;5.528;2023-03-24T11:20:03;11.80;;;3.35;;
43160;SDS011;40968;52.342;5.528;2023-03-24T11:22:41;28.08;;;3.53;;
43160;SDS011;40968;52.342;5.528;2023-03-24T11:25:29;14.77;;;3.60;;
43160;SDS011;40968;52.342;5.528;2023-03-24T11:27:59;12.05;;;3.33;;
43160;SDS011;40968;52.342;5.528;2023-03-24T11:30:29;25.75;;;4.45;;
43160;SDS011;40968;52.342;5.528;2023-03-24T11:32:59;18.33;;;3.25;;
43160;SDS011;40968;52.342;5.528;2023-03-24T11:35:28;25.65;;;3.97;;
43160;SDS011;40968;52.342;5.528;2023-03-24T11:37:56;13.07;;;2.90;;
43160;SDS011;40968;52.342;5.528;2023-03-24T11:40:29;16.23;;;2.92;;
43160;SDS011;40968;52.342;5.528;2023-03-24T11:42:57;20.58;;;2.92;;
43160;SDS011;40968;52.342;5.528;2023-03-24T11:45:27;17.88;;;3.42;;
43160;SDS011;40968;52.342;5.528;2023-03-24T11:48:00;10.48;;;2.80;;
43160;SDS011;40968;52.342;5.528;2023-03-24T11:50:30;13.50;;;2.70;;
43160;SDS011;40968;52.342;5.528;2023-03-24T11:53:01;12.52;;;2.70;;
43160;SDS011;40968;52.342;5.528;2023-03-24T11:55:33;17.17;;;3.35;;
43160;SDS011;40968;52.342;5.528;2023-03-24T11:58:07;11.27;;;2.70;;
43160;SDS011;40968;52.342;5.528;2023-03-24T12:00:42;10.43;;;3.40;;
43160;SDS011;40968;52.342;5.528;2023-03-24T12:03:20;23.20;;;2.90;;
43160;SDS011;40968;52.342;5.528;2023-03-24T12:06:15;13.95;;;2.88;;
43160;SDS011;40968;52.342;5.528;2023-03-24T12:08:56;12.07;;;3.08;;
43160;SDS011;40968;52.342;5.528;2023-03-24T12:11:32;17.50;;;2.97;;
43160;SDS011;40968;52.342;5.528;2023-03-24T12:14:17;19.98;;;3.58;;
43160;SDS011;40968;52.342;5.528;2023-03-24T12:16:51;10.55;;;2.55;;
43160;SDS011;40968;52.342;5.528;2023-03-24T12:22:04;13.52;;;2.58;;
43160;SDS011;40968;52.342;5.528;2023-03-24T12:24:53;16.73;;;2.88;;
43160;SDS011;40968;52.342;5.528;2023-03-24T12:27:31;8.88;;;2.78;;
43160;SDS011;40968;52.342;5.528;2023-03-24T12:30:11;13.32;;;2.90;;
43160;SDS011;40968;52.342;5.528;2023-03-24T12:32:49;12.35;;;3.13;;
43160;SDS011;40968;52.342;5.528;2023-03-24T12:35:41;11.80;;;2.78;;
43160;SDS011;40968;52.342;5.528;2023-03-24T12:38:23;16.77;;;3.55;;
43160;SDS011;40968;52.342;5.528;2023-03-24T12:44:00;15.70;;;2.38;;
43160;SDS011;40968;52.342;5.528;2023-03-24T12:46:41;16.92;;;2.67;;
43160;SDS011;40968;52.342;5.528;2023-03-24T12:49:18;15.90;;;2.70;;
43160;SDS011;40968;52.342;5.528;2023-03-24T12:52:06;10.98;;;2.20;;
43160;SDS011;40968;52.342;5.528;2023-03-24T12:54:47;11.25;;;2.28;;
43160;SDS011;40968;52.342;5.528;2023-03-24T12:57:18;12.55;;;2.22;;
43160;SDS011;40968;52.342;5.528;2023-03-24T12:59:50;9.40;;;1.92;;
43160;SDS011;40968;52.342;5.528;2023-03-24T13:02:26;5.25;;;1.60;;
43160;SDS011;40968;52.342;5.528;2023-03-24T13:04:58;11.43;;;2.05;;
43160;SDS011;40968;52.342;5.528;2023-03-24T13:07:29;6.07;;;1.77;;
43160;SDS011;40968;52.342;5.528;2023-03-24T13:10:02;5.28;;;1.52;;
43160;SDS011;40968;52.342;5.528;2023-03-24T13:12:34;14.23;;;1.98;;
43160;SDS011;40968;52.342;5.528;2023-03-24T13:15:08;13.95;;;1.70;;
43160;SDS011;40968;52.342;5.528;2023-03-24T13:17:44;8.75;;;1.80;;
43160;SDS011;40968;52.342;5.528;2023-03-24T13:20:16;13.82;;;1.90;;
43160;SDS011;40968;52.342;5.528;2023-03-24T13:22:49;7.35;;;1.98;;
43160;SDS011;40968;52.342;5.528;2023-03-24T13:25:19;6.75;;;1.88;;
43160;SDS011;40968;52.342;5.528;2023-03-24T13:27:52;10.60;;;2.05;;
43160;SDS011;40968;52.342;5.528;2023-03-24T13:30:26;12.27;;;2.00;;
43160;SDS011;40968;52.342;5.528;2023-03-24T13:32:59;13.10;;;2.00;;
43160;SDS011;40968;52.342;5.528;2023-03-24T13:35:37;9.10;;;2.33;;
43160;SDS011;40968;52.342;5.528;2023-03-24T13:38:16;13.52;;;2.35;;
43160;SDS011;40968;52.342;5.528;2023-03-24T13:40:46;12.68;;;2.15;;
43160;SDS011;40968;52.342;5.528;2023-03-24T13:43:17;12.20;;;2.22;;
43160;SDS011;40968;52.342;5.528;2023-03-24T13:45:46;12.27;;;2.08;;
43160;SDS011;40968;52.342;5.528;2023-03-24T13:48:22;8.52;;;2.38;;
43160;SDS011;40968;52.342;5.528;2023-03-24T13:50:55;15.15;;;2.30;;
43160;SDS011;40968;52.342;5.528;2023-03-24T13:53:32;32.67;;;3.03;;
43160;SDS011;40968;52.342;5.528;2023-03-24T13:56:03;11.52;;;2.95;;
43160;SDS011;40968;52.342;5.528;2023-03-24T13:58:46;14.70;;;2.40;;
43160;SDS011;40968;52.342;5.528;2023-03-24T14:01:17;9.73;;;2.95;;
43160;SDS011;40968;52.342;5.528;2023-03-24T14:06:50;14.40;;;2.72;;
43160;SDS011;40968;52.342;5.528;2023-03-24T14:09:19;13.30;;;2.10;;
43160;SDS011;40968;52.342;5.528;2023-03-24T14:17:39;12.68;;;2.38;;
43160;SDS011;40968;52.342;5.528;2023-03-24T14:20:15;13.20;;;2.70;;
43160;SDS011;40968;52.342;5.528;2023-03-24T14:22:51;8.65;;;2.40;;
43160;SDS011;40968;52.342;5.528;2023-03-24T14:25:20;10.82;;;2.92;;
43160;SDS011;40968;52.342;5.528;2023-03-24T14:27:50;9.63;;;2.33;;
43160;SDS011;40968;52.342;5.528;2023-03-24T14:30:18;15.80;;;2.90;;
43160;SDS011;40968;52.342;5.528;2023-03-24T14:32:48;13.60;;;2.25;;
43160;SDS011;40968;52.342;5.528;2023-03-24T14:35:31;14.95;;;2.78;;
43160;SDS011;40968;52.342;5.528;2023-03-24T14:38:01;7.40;;;2.38;;
43160;SDS011;40968;52.342;5.528;2023-03-24T14:40:32;7.80;;;1.75;;
43160;SDS011;40968;52.342;5.528;2023-03-24T14:43:03;11.95;;;2.35;;
43160;SDS011;40968;52.342;5.528;2023-03-24T14:45:41;10.65;;;2.15;;
43160;SDS011;40968;52.342;5.528;2023-03-24T14:48:22;7.10;;;1.85;;
43160;SDS011;40968;52.342;5.528;2023-03-24T14:50:57;24.48;;;2.20;;
43160;SDS011;40968;52.342;5.528;2023-03-24T14:53:26;9.73;;;1.83;;
43160;SDS011;40968;52.342;5.528;2023-03-24T14:55:53;5.28;;;1.13;;
43160;SDS011;40968;52.342;5.528;2023-03-24T14:58:21;6.15;;;1.65;;
43160;SDS011;40968;52.342;5.528;2023-03-24T15:00:54;5.22;;;1.85;;
43160;SDS011;40968;52.342;5.528;2023-03-24T15:03:27;5.72;;;1.23;;
43160;SDS011;40968;52.342;5.528;2023-03-24T15:06:07;7.47;;;1.23;;
43160;SDS011;40968;52.342;5.528;2023-03-24T15:08:38;10.23;;;1.70;;
43160;SDS011;40968;52.342;5.528;2023-03-24T15:11:08;4.93;;;1.48;;
43160;SDS011;40968;52.342;5.528;2023-03-24T15:13:36;5.38;;;1.50;;
43160;SDS011;40968;52.342;5.528;2023-03-24T15:16:06;15.75;;;2.17;;
43160;SDS011;40968;52.342;5.528;2023-03-24T15:18:42;4.45;;;1.30;;
43160;SDS011;40968;52.342;5.528;2023-03-24T15:21:21;9.00;;;1.70;;
43160;SDS011;40968;52.342;5.528;2023-03-24T15:23:49;15.82;;;2.50;;